METAR Data
IDs: Format: Raw Decoded Include TAF

Data at: 1526 UTC 24 Aug 2019

PAYA 241518Z AUTO 00000KT 2SM BR SCT004 BKN011 OVC025 10/09 A2963 RMK AO2 VIS 3/4V5 T01000094 TSNO
PAYA 241516Z AUTO 00000KT 1 1/4SM BR SCT004 BKN011 OVC025 10/09 A2962 RMK AO2 VIS 1/2V5 T01000094 TSNO
PAYA 241503Z AUTO 00000KT 1/4SM FG SCT004 BKN011 OVC018 09/09 A2962 RMK AO2 T00940089 TSNO RVRNO
PAYA 241453Z AUTO 00000KT 1/4SM FG BKN002 BKN012 OVC029 09/09 A2962 RMK AO2 SLP029 T00940089 53006 TSNO RVRNO
PAYA 241441Z AUTO 00000KT 1/4SM FG SCT002 BKN011 OVC029 09/09 A2962 RMK AO2 T00940089 TSNO RVRNO
PAYA 241400Z AUTO 00000KT 1/4SM FG BKN002 OVC022 10/09 A2961 RMK AO2 T01000094 TSNO RVRNO
PAYA 241353Z AUTO 00000KT 1/4SM FG SCT002 BKN022 OVC065 10/09 A2960 RMK AO2 SLP024 T01000094 TSNO RVRNO
PAYA 241349Z AUTO 00000KT 1/4SM FG SCT002 BKN022 OVC070 09/09 A2960 RMK AO2 TSNO RVRNO
PAYA 241325Z AUTO 00000KT 1/4SM FG SCT002 OVC065 10/10 A2960 RMK AO2 T01000100 TSNO RVRNO
PAYA 241253Z AUTO 05003KT 1/4SM FG VV002 11/10 A2960 RMK AO2 SLP023 T01060100 TSNO RVRNO
PAYA 241236Z AUTO 00000KT 1/4SM FG BKN003 OVC036 11/10 A2960 RMK AO2 T01060100 TSNO RVRNO
PAYA 241228Z AUTO 00000KT 3/4SM BR SCT001 BKN036 OVC045 11/10 A2960 RMK AO2 T01060100 TSNO RVRNO
PAYA 241221Z AUTO 00000KT 3/4SM BR SCT001 BKN029 OVC036 11/10 A2960 RMK AO2 T01060100 TSNO RVRNO
PAYA 241214Z AUTO 00000KT 1 3/4SM BR SCT002 BKN027 OVC036 11/10 A2960 RMK AO2 T01060100 TSNO
PAYA 241203Z AUTO 00000KT 5SM BR SCT001 BKN027 OVC033 11/10 A2960 RMK AO2 T01060100 TSNO
PAYA 241153Z AUTO 00000KT 6SM BR BKN026 OVC046 11/10 A2959 RMK AO2 SLP022 60009 70032 T01060100 10117 20106 51007 TSNO
PAYA 241149Z AUTO 00000KT 7SM BKN026 OVC044 11/10 A2959 RMK AO2 TSNO
PAYA 241127Z AUTO 00000KT 7SM FEW020 SCT028 OVC042 11/10 A2959 RMK AO2 T01060100 TSNO
PAYA 241053Z AUTO 00000KT 5SM BR BKN027 BKN036 OVC049 11/11 A2959 RMK AO2 SLP019 T01060106 TSNO
PAYA 240953Z AUTO 00000KT 7SM SCT044 OVC070 11/11 A2957 RMK AO2 SLP015 T01110106 TSNO
PAYA 240853Z AUTO 00000KT 5SM BR FEW005 OVC043 12/11 A2956 RMK AO2 RAE10 SLP011 P0000 60009 T01170111 401440100 51009 TSNO
PAYA 240839Z AUTO 25003KT 10SM FEW005 BKN045 OVC055 11/11 A2956 RMK AO2 RAE10 P0000 T01110106 TSNO
PAYA 240753Z AUTO 00000KT 8SM -RA OVC040 11/11 A2955 RMK AO2 SLP008 P0003 T01110106 TSNO
PAYA 240653Z AUTO 00000KT 7SM -RA OVC040 12/11 A2955 RMK AO2 SLP005 P0006 T01170111 TSNO
PAYA 240553Z AUTO 34003KT 4SM RA BR OVC037 11/11 A2954 RMK AO2 SLP002 P0006 60022 T01110111 10128 20111 53010 TSNO
PAYA 240453Z AUTO 35003KT 6SM -RA BR OVC039 11/11 A2952 RMK AO2 SLP998 P0005 T01110106 TSNO
PAYA 240353Z AUTO 33004KT 4SM -RA BR OVC043 12/11 A2951 RMK AO2 SLP994 P0004 T01170106 TSNO
PAYA 240253Z AUTO 32003KT 5SM -RA BR SCT047 BKN060 OVC075 12/11 A2951 RMK AO2 SLP991 P0003 60007 T01170111 52007 TSNO
PAYA 240153Z AUTO 33006KT 5SM -RA BR OVC065 12/11 A2950 RMK AO2 SLP989 P0002 T01220111 TSNO
PAYA 240053Z AUTO 33004KT 6SM -RA BR OVC070 12/11 A2949 RMK AO2 SLP988 P0002 T01220106 TSNO
PAYA 232353Z AUTO 32006KT 9SM -RA OVC075 13/10 A2948 RMK AO2 SLP985 P0001 60001 T01280100 10144 20128 51008 TSNO
PAYA 232253Z AUTO 31004KT 9SM -RA OVC070 13/11 A2948 RMK AO2 SLP983 P0000 T01330111 TSNO
PAYA 232153Z AUTO 29004KT 8SM -RA OVC070 14/10 A2947 RMK AO2 SLP980 P0000 T01390100 TSNO
PAYA 232053Z AUTO 00000KT 9SM -RA OVC065 14/11 A2946 RMK AO2 SLP977 P0000 60000 T01390106 53006 TSNO
PAYA 231953Z AUTO 23005KT 9SM -RA OVC070 14/09 A2946 RMK AO2 RAB22 SLP974 P0000 T01390094 TSNO
PAYA 231853Z AUTO 22004KT 5SM HZ OVC075 14/11 A2945 RMK AO2 RAB10E35 SLP972 P0000 T01390106 TSNO
PAYA 231753Z AUTO 21003KT 10SM OVC075 14/11 A2944 RMK AO2 SLP970 60000 T01390106 10139 20100 52007 TSNO
PAYA 231653Z AUTO 00000KT 10SM OVC075 13/11 A2943 RMK AO2 SLP967 T01330111 TSNO
PAYA 231553Z AUTO 00000KT 10SM OVC065 12/11 A2943 RMK AO2 RAB04E28 SLP966 P0000 T01220111 TSNO
PAYA 231453Z AUTO 29005KT 10SM OVC065 11/10 A2942 RMK AO2 SLP963 T01060100 53005 TSNO
PAYA 231353Z AUTO 00000KT 10SM OVC070 10/09 A2941 RMK AO2 SLP960 T01000094 TSNO
PAYA 231253Z AUTO 00000KT 9SM OVC070 11/10 A2941 RMK AO2 SLP959 T01060100 TSNO
PAYA 231153Z AUTO 00000KT 10SM OVC065 11/10 A2941 RMK AO2 RAB1057E33 SLP959 P0001 60002 70015 T01060100 10122 20100 56006 TSNO
PAYA 231053Z AUTO 00000KT 9SM OVC060 11/10 A2941 RMK AO2 SLP960 T01060100 TSNO
PAYA 230953Z AUTO 00000KT 7SM OVC070 11/10 A2942 RMK AO2 RAE48 SLP963 P0000 T01060100 TSNO
PAYA 230853Z AUTO 00000KT 9SM -RA OVC070 11/10 A2943 RMK AO2 SLP964 P0001 60001 T01060100 401440100 56010 TSNO
PAYA 230753Z AUTO 00000KT 10SM -RA OVC060 11/10 A2943 RMK AO2 SLP965 P0000 T01110100 TSNO
PAYA 230653Z AUTO 02003KT 10SM -RA OVC070 12/09 A2944 RMK AO2 RAB30 SLP968 P0000 T01170094 TSNO
PAYA 230553Z AUTO 05005KT 10SM BKN060 OVC080 12/10 A2946 RMK AO2 RAE02 SLP975 P0000 60000 T01170100 10139 20111 58028 TSNO
PAYA 230453Z AUTO 00000KT 10SM -RA OVC070 12/11 A2948 RMK AO2 RAB03 SLP985 P0000 T01170106 TSNO
PAYA 230353Z AUTO 00000KT 10SM OVC070 12/11 A2951 RMK AO2 RAB31E48 SLP993 P0000 T01220106 TSNO